Time;durP1;ratioP1;P1;durP2;ratioP2;P2;SDS_P1;SDS_P2;PMS_P1;PMS_P2;Temp;Humidity;BMP_temperature;BMP_pressure;BME280_temperature;BME280_humidity;BME280_pressure;Samples;Min_cycle;Max_cycle;Signal;HPM_P1;HPM_P2
2022/10/13 00:01:39;;;;;;;17.20;10.10;;;;;;;15.29;66.45;98011.03;5041176;28;20195;-74
2022/10/13 00:04:04;;;;;;;13.13;10.70;;;;;;;15.25;65.94;98011.53;5052657;28;20667;-72
2022/10/13 00:06:30;;;;;;;13.40;9.60;;;;;;;15.14;65.77;98007.38;5052304;28;20245;-74
2022/10/13 00:08:57;;;;;;;18.40;10.47;;;;;;;15.10;65.43;98012.16;5052246;28;20195;-71
2022/10/13 00:11:25;;;;;;;15.93;9.83;;;;;;;15.09;65.54;98010.50;5052780;28;20413;-75
2022/10/13 00:13:57;;;;;;;17.10;11.37;;;;;;;15.09;65.92;98023.72;5052666;28;20529;-75
2022/10/13 00:16:23;;;;;;;17.30;11.60;;;;;;;15.11;66.47;98029.66;5051727;28;20429;-75
2022/10/13 00:18:49;;;;;;;19.37;12.37;;;;;;;15.16;66.79;98019.41;5052891;28;20418;-74
2022/10/13 00:21:17;;;;;;;25.83;15.77;;;;;;;15.16;67.78;98023.88;5042367;28;20468;-75
2022/10/13 00:23:43;;;;;;;30.27;15.37;;;;;;;15.13;68.91;98019.75;5040849;28;20454;-74
2022/10/13 00:26:10;;;;;;;23.37;15.70;;;;;;;15.24;68.65;98023.91;5049217;28;20432;-74
2022/10/13 00:28:36;;;;;;;25.20;16.57;;;;;;;15.31;68.73;98016.16;5052145;28;20555;-74
2022/10/13 00:31:01;;;;;;;24.10;15.50;;;;;;;15.36;68.95;98021.78;5052635;28;20431;-74
2022/10/13 00:33:27;;;;;;;23.10;15.40;;;;;;;15.40;69.01;98024.91;5052178;28;20285;-75
2022/10/13 00:35:52;;;;;;;27.63;16.80;;;;;;;15.45;69.15;98017.31;5044786;28;20206;-74
2022/10/13 00:38:20;;;;;;;23.23;16.50;;;;;;;15.47;69.11;98013.53;5050155;28;20244;-75
2022/10/13 00:40:54;;;;;;;29.97;16.03;;;;;;;15.51;69.36;98009.56;5048293;28;20297;-75
2022/10/13 00:43:25;;;;;;;29.37;15.50;;;;;;;15.52;69.05;98011.22;5050859;28;20446;-75
2022/10/13 00:45:51;;;;;;;34.20;16.43;;;;;;;15.54;68.82;98010.22;5051684;28;20422;-74
2022/10/13 00:48:20;;;;;;;28.73;16.33;;;;;;;15.50;68.74;98001.81;5051634;28;20786;-75
2022/10/13 00:50:45;;;;;;;27.67;15.60;;;;;;;15.54;68.83;98003.16;5050422;28;20456;-75
2022/10/13 00:53:13;;;;;;;21.00;15.20;;;;;;;15.55;68.68;98009.25;5050394;28;20884;-75
2022/10/13 00:55:41;;;;;;;30.60;17.40;;;;;;;15.53;68.81;97998.84;5044807;28;20179;-74
2022/10/13 00:58:09;;;;;;;32.50;16.67;;;;;;;15.53;68.66;98014.69;5049550;28;20937;-74
2022/10/13 01:00:35;;;;;;;33.10;16.63;;;;;;;15.51;68.64;98006.91;5045955;28;20422;-75
2022/10/13 01:03:01;;;;;;;31.33;16.57;;;;;;;15.54;68.75;98008.44;5051946;28;20519;-75
2022/10/13 01:05:27;;;;;;;25.80;16.80;;;;;;;15.54;68.56;98008.44;5042899;28;20184;-75
2022/10/13 01:07:54;;;;;;;28.00;15.80;;;;;;;15.56;68.66;98001.16;5044882;28;20990;-75
2022/10/13 01:10:39;;;;;;;27.57;15.60;;;;;;;15.54;68.46;98004.94;5041910;28;20425;-75
2022/10/13 01:13:12;;;;;;;35.37;15.30;;;;;;;15.50;68.20;97999.97;5050290;28;20464;-75
2022/10/13 01:15:47;;;;;;;23.93;13.60;;;;;;;15.48;67.68;98004.63;5050302;28;20429;-74
2022/10/13 01:18:22;;;;;;;26.57;14.53;;;;;;;15.47;67.91;98002.97;5050703;28;20449;-75
2022/10/13 01:21:05;;;;;;;22.23;14.80;;;;;;;15.44;68.01;98008.56;5036186;28;20450;-73
2022/10/13 01:23:54;;;;;;;26.33;15.70;;;;;;;15.38;67.97;98003.13;5028895;28;20543;-74
2022/10/13 01:26:38;;;;;;;27.70;15.87;;;;;;;15.33;67.82;98003.63;5047202;28;20417;-73
2022/10/13 01:29:29;;;;;;;23.50;15.60;;;;;;;15.29;68.18;97999.63;5051090;28;20769;-73
2022/10/13 01:32:07;;;;;;;29.33;16.23;;;;;;;15.31;67.77;98001.13;5042166;28;20901;-74
2022/10/13 01:35:00;;;;;;;21.93;15.90;;;;;;;15.28;67.71;97998.81;5049967;28;20500;-75
2022/10/13 01:37:31;;;;;;;35.37;16.90;;;;;;;15.25;67.93;97990.41;5048290;28;20447;-75
2022/10/13 01:40:05;;;;;;;30.63;16.90;;;;;;;15.19;68.34;97990.06;5051108;28;20414;-75
2022/10/13 01:42:53;;;;;;;24.63;16.00;;;;;;;15.19;68.80;97994.50;5043518;28;20998;-73
2022/10/13 01:45:20;;;;;;;24.00;15.50;;;;;;;15.19;68.82;97979.50;5050088;28;20583;-75
2022/10/13 01:47:46;;;;;;;28.70;17.30;;;;;;;15.22;68.87;97993.38;5049056;28;20430;-75
2022/10/13 01:50:13;;;;;;;28.73;16.30;;;;;;;15.26;68.85;97978.84;5049691;28;21029;-74
2022/10/13 01:52:38;;;;;;;25.30;16.27;;;;;;;15.22;68.85;97978.34;5049005;28;20187;-75
2022/10/13 01:55:09;;;;;;;27.87;15.23;;;;;;;15.23;68.96;97974.72;5041729;28;20463;-73
2022/10/13 01:57:37;;;;;;;26.97;15.07;;;;;;;15.23;68.37;97981.81;5035507;28;20183;-74
2022/10/13 02:00:12;;;;;;;27.80;14.23;;;;;;;15.17;68.25;97975.38;5038760;28;20417;-74
2022/10/13 02:02:56;;;;;;;25.60;15.70;;;;;;;15.18;67.87;97977.84;5049096;28;20980;-73
2022/10/13 02:05:47;;;;;;;25.57;15.67;;;;;;;15.15;67.97;97978.16;5050215;28;20512;-75
2022/10/13 02:08:22;;;;;;;20.87;14.73;;;;;;;15.13;67.94;97977.50;5049605;28;20421;-75
2022/10/13 02:11:11;;;;;;;19.30;14.10;;;;;;;15.14;68.04;97979.16;5044438;28;20909;-73
2022/10/13 02:13:40;;;;;;;21.87;14.77;;;;;;;15.16;68.00;97979.81;5042775;28;20437;-73
2022/10/13 02:16:06;;;;;;;21.23;13.93;;;;;;;15.20;67.99;97975.03;5049658;28;20429;-75
2022/10/13 02:18:33;;;;;;;26.70;14.93;;;;;;;15.19;68.06;97968.94;5049394;28;20793;-74
2022/10/13 02:20:59;;;;;;;20.73;14.60;;;;;;;15.22;68.12;97974.88;5042057;28;20212;-74
2022/10/13 02:23:25;;;;;;;24.67;16.90;;;;;;;15.26;68.32;97971.75;5046327;28;20441;-74
2022/10/13 02:25:51;;;;;;;28.87;13.60;;;;;;;15.26;67.72;97976.19;5044152;28;20843;-75
2022/10/13 02:28:17;;;;;;;21.87;14.60;;;;;;;15.29;68.13;97975.88;5048788;28;20430;-75
2022/10/13 02:30:44;;;;;;;25.20;15.10;;;;;;;15.28;68.31;97982.97;5032759;28;20194;-74
2022/10/13 02:33:10;;;;;;;22.93;15.60;;;;;;;15.30;68.34;97981.00;5050938;28;20694;-75
2022/10/13 02:35:36;;;;;;;25.73;16.10;;;;;;;15.33;68.36;97985.94;5051528;28;20441;-75
2022/10/13 02:38:02;;;;;;;26.33;15.30;;;;;;;15.33;68.56;97979.84;5047757;28;20426;-75
2022/10/13 02:40:27;;;;;;;25.67;15.40;;;;;;;15.36;68.59;97979.53;5044984;28;20183;-74
2022/10/13 02:42:53;;;;;;;22.10;14.60;;;;;;;15.39;68.63;97975.72;5049515;28;20725;-74
2022/10/13 02:45:18;;;;;;;23.20;15.50;;;;;;;15.40;68.80;97974.75;5055055;28;20194;-75
2022/10/13 02:47:44;;;;;;;29.93;16.30;;;;;;;15.41;68.94;97977.19;5048150;28;20251;-74
2022/10/13 02:50:09;;;;;;;29.23;16.43;;;;;;;15.42;68.90;97976.22;5052399;28;20221;-74
2022/10/13 02:52:35;;;;;;;35.37;17.60;;;;;;;15.44;69.13;97970.75;5054733;28;20179;-74
2022/10/13 02:55:01;;;;;;;31.87;16.73;;;;;;;15.43;69.40;97969.94;5045237;28;20202;-73
2022/10/13 02:57:26;;;;;;;32.67;16.50;;;;;;;15.46;69.35;97971.41;5053592;28;20642;-75
2022/10/13 02:59:51;;;;;;;25.20;17.50;;;;;;;15.48;69.33;97967.66;5047754;28;20681;-75
2022/10/13 03:02:17;;;;;;;27.60;16.20;;;;;;;15.51;69.41;97966.47;5044349;28;20291;-74
2022/10/13 03:04:43;;;;;;;30.87;16.30;;;;;;;15.54;69.37;97970.59;5048325;28;20203;-74
2022/10/13 03:07:08;;;;;;;33.80;17.10;;;;;;;15.56;69.51;97965.97;5053725;28;20261;-74
2022/10/13 03:09:34;;;;;;;27.80;17.03;;;;;;;15.49;69.50;97968.47;5044720;28;20193;-75
2022/10/13 03:12:00;;;;;;;29.73;16.73;;;;;;;15.44;69.55;97963.69;5052988;28;20175;-75
2022/10/13 03:14:26;;;;;;;33.83;17.93;;;;;;;15.39;70.13;97968.63;5015830;28;20463;-75
2022/10/13 03:16:51;;;;;;;34.37;17.47;;;;;;;15.43;69.94;97961.22;5033032;28;20270;-75
2022/10/13 03:19:16;;;;;;;29.67;16.63;;;;;;;15.46;70.04;97959.06;5035386;28;20669;-75
2022/10/13 03:21:42;;;;;;;31.00;16.00;;;;;;;15.54;69.95;97962.69;5038481;28;20384;-74
2022/10/13 03:24:07;;;;;;;28.10;17.20;;;;;;;15.55;69.97;97951.97;5034854;28;20286;-74
2022/10/13 03:26:33;;;;;;;26.63;16.63;;;;;;;15.56;69.98;97950.13;5033798;28;20187;-75
2022/10/13 03:28:59;;;;;;;40.43;18.83;;;;;;;15.55;69.75;97946.69;5034864;28;20193;-74
2022/10/13 03:31:24;;;;;;;30.87;16.37;;;;;;;15.57;69.51;97938.56;5022095;28;20427;-74
2022/10/13 03:33:50;;;;;;;23.80;17.70;;;;;;;15.61;69.57;97937.25;5014449;28;20216;-75
2022/10/13 03:36:16;;;;;;;25.60;16.00;;;;;;;15.62;69.62;97925.69;5012732;28;20184;-73
2022/10/13 03:38:41;;;;;;;24.57;16.40;;;;;;;15.63;69.45;97932.59;5016479;28;20820;-74
2022/10/13 03:41:11;;;;;;;28.50;16.03;;;;;;;15.62;69.63;97925.69;5033901;28;20291;-75
2022/10/13 03:43:37;;;;;;;31.30;17.63;;;;;;;15.65;69.54;97922.69;5036504;28;20195;-74
2022/10/13 03:46:03;;;;;;;28.90;16.60;;;;;;;15.64;69.55;97929.81;5034799;28;20430;-75
2022/10/13 03:48:29;;;;;;;35.23;17.63;;;;;;;15.66;69.80;97927.00;5041755;28;20655;-74
2022/10/13 03:50:55;;;;;;;34.97;15.90;;;;;;;15.66;69.78;97932.28;5038549;28;20513;-75
2022/10/13 03:53:21;;;;;;;36.03;16.63;;;;;;;15.65;69.55;97930.63;5033059;28;20231;-75
2022/10/13 03:55:54;;;;;;;25.10;16.57;;;;;;;15.64;69.60;97929.81;5030824;28;20187;-74
2022/10/13 03:58:20;;;;;;;33.00;15.43;;;;;;;15.68;69.35;97934.78;5040458;28;20924;-74
2022/10/13 04:00:46;;;;;;;28.23;16.70;;;;;;;15.66;69.25;97941.06;5031835;28;20787;-75
2022/10/13 04:03:12;;;;;;;24.43;15.53;;;;;;;15.68;69.29;97940.88;5033075;28;20450;-74
2022/10/13 04:05:38;;;;;;;23.63;16.20;;;;;;;15.71;69.42;97948.47;5032246;28;20299;-75
2022/10/13 04:08:04;;;;;;;27.87;15.90;;;;;;;15.73;69.09;97943.00;5040170;28;20431;-74
2022/10/13 04:10:29;;;;;;;29.80;15.70;;;;;;;15.75;69.29;97946.31;5024697;28;20222;-73
2022/10/13 04:12:55;;;;;;;29.03;15.27;;;;;;;15.73;69.36;97954.41;5032243;28;20521;-75
2022/10/13 04:15:20;;;;;;;27.27;15.27;;;;;;;15.76;69.33;97945.31;5036185;28;20186;-73
2022/10/13 04:17:46;;;;;;;27.30;15.40;;;;;;;15.77;69.51;97944.34;5032215;28;20192;-72
2022/10/13 04:20:11;;;;;;;29.60;15.63;;;;;;;15.75;69.46;97935.75;5033071;28;20191;-74
2022/10/13 04:22:37;;;;;;;21.73;15.37;;;;;;;15.78;69.31;97935.41;5039154;28;20220;-74
2022/10/13 04:25:03;;;;;;;27.63;15.87;;;;;;;15.76;69.26;97932.91;5041195;28;20207;-73
2022/10/13 04:27:29;;;;;;;28.80;16.30;;;;;;;15.77;69.43;97923.19;5023874;28;20274;-74
2022/10/13 04:29:55;;;;;;;24.00;15.63;;;;;;;15.75;69.56;97933.91;5026089;28;20510;-75
2022/10/13 04:32:20;;;;;;;33.07;16.37;;;;;;;15.62;69.31;97941.56;5031385;28;20194;-74
2022/10/13 04:34:46;;;;;;;24.23;15.70;;;;;;;15.64;69.43;97942.19;5031723;28;20302;-72
2022/10/13 04:37:11;;;;;;;32.40;16.37;;;;;;;15.65;69.05;97939.41;5030671;28;20266;-75
2022/10/13 04:39:37;;;;;;;22.60;15.27;;;;;;;15.66;69.40;97938.41;5032248;28;20552;-75
2022/10/13 04:42:02;;;;;;;32.03;15.80;;;;;;;15.65;69.31;97946.47;5034184;28;20212;-72
2022/10/13 04:44:28;;;;;;;20.40;15.50;;;;;;;15.64;69.42;97943.03;5033726;28;20602;-74
2022/10/13 04:46:53;;;;;;;19.60;15.00;;;;;;;15.67;69.40;97939.22;5031280;28;20801;-74
2022/10/13 04:49:19;;;;;;;23.00;14.47;;;;;;;15.71;69.31;97937.06;5032176;28;20267;-73
2022/10/13 04:51:44;;;;;;;27.83;15.50;;;;;;;15.72;69.29;97929.00;5037701;28;20251;-73
2022/10/13 04:54:09;;;;;;;25.30;14.83;;;;;;;15.71;69.13;97929.13;5033716;28;20290;-75
2022/10/13 04:56:35;;;;;;;22.30;13.60;;;;;;;15.70;69.04;97928.31;5031232;28;20180;-74
2022/10/13 04:59:04;;;;;;;18.87;13.93;;;;;;;15.71;69.16;97929.97;5030555;28;20647;-75
2022/10/13 05:01:29;;;;;;;27.00;14.50;;;;;;;15.71;68.69;97923.84;5040357;28;20215;-75
2022/10/13 05:03:57;;;;;;;32.77;15.23;;;;;;;15.70;68.44;97922.19;5031892;28;20473;-75
2022/10/13 05:06:25;;;;;;;23.83;14.77;;;;;;;15.69;67.97;97918.75;5030594;28;20184;-74
2022/10/13 05:08:50;;;;;;;22.33;13.97;;;;;;;15.66;68.13;97909.34;5031628;28;20422;-74
2022/10/13 05:11:17;;;;;;;28.70;14.10;;;;;;;15.65;68.03;97918.25;5024953;28;20778;-74
2022/10/13 05:13:42;;;;;;;33.07;15.20;;;;;;;15.62;68.17;97912.50;5027171;28;20345;-73
2022/10/13 05:16:09;;;;;;;35.03;14.70;;;;;;;15.58;68.02;97929.66;5023913;28;20925;-73
2022/10/13 05:18:36;;;;;;;26.77;14.33;;;;;;;15.56;68.04;97926.34;5030840;28;20230;-75
2022/10/13 05:21:12;;;;;;;24.17;14.47;;;;;;;15.56;67.90;97931.63;5039111;28;20461;-74
2022/10/13 05:23:38;;;;;;;27.90;14.10;;;;;;;15.55;67.90;97932.63;5037479;28;20455;-74
2022/10/13 05:26:06;;;;;;;22.40;14.90;;;;;;;15.54;67.95;97936.25;5051127;28;20500;-75
2022/10/13 05:28:31;;;;;;;25.03;14.30;;;;;;;15.51;68.13;97930.31;5051052;28;20189;-75
2022/10/13 05:30:57;;;;;;;22.77;15.13;;;;;;;15.55;68.14;97924.69;5051667;28;20921;-74
2022/10/13 05:33:22;;;;;;;26.97;15.13;;;;;;;15.55;68.17;97935.28;5049264;28;20206;-72
2022/10/13 05:35:47;;;;;;;23.20;15.40;;;;;;;15.57;68.36;97933.28;5050654;28;20201;-74
2022/10/13 05:38:13;;;;;;;30.60;15.03;;;;;;;15.56;68.37;97929.00;5048579;28;20316;-74
2022/10/13 05:40:38;;;;;;;25.10;15.50;;;;;;;15.57;68.24;97934.09;5049116;28;20195;-73
2022/10/13 05:43:04;;;;;;;27.30;15.33;;;;;;;15.59;68.34;97932.13;5046861;28;20187;-74
2022/10/13 05:45:31;;;;;;;24.70;15.30;;;;;;;15.60;68.25;97932.97;5051212;28;20676;-73
2022/10/13 05:47:56;;;;;;;31.40;16.10;;;;;;;15.57;68.14;97928.81;5047810;28;20198;-75
2022/10/13 05:50:22;;;;;;;23.67;15.50;;;;;;;15.57;68.09;97943.84;5050626;28;20514;-75
2022/10/13 05:52:48;;;;;;;27.43;14.23;;;;;;;15.56;68.09;97932.47;5046254;28;20183;-73
2022/10/13 05:55:14;;;;;;;23.53;15.07;;;;;;;15.54;68.26;97934.47;5049155;28;20297;-75
2022/10/13 05:57:42;;;;;;;27.40;16.37;;;;;;;15.56;68.36;97931.63;5050376;28;20190;-75
2022/10/13 06:00:13;;;;;;;27.67;16.40;;;;;;;15.50;67.87;97920.72;5032749;28;20434;-75
2022/10/13 06:02:43;;;;;;;29.13;15.90;;;;;;;15.52;68.12;97920.59;5042597;28;20840;-74
2022/10/13 06:05:12;;;;;;;29.43;16.40;;;;;;;15.54;68.36;97915.97;5021698;28;20450;-75
2022/10/13 06:07:38;;;;;;;27.17;15.70;;;;;;;15.55;68.09;97912.34;5050008;28;20494;-74
2022/10/13 06:10:04;;;;;;;23.20;15.83;;;;;;;15.57;68.18;97914.78;5050137;28;20429;-74
2022/10/13 06:12:29;;;;;;;29.27;16.53;;;;;;;15.56;67.91;97921.91;5050234;28;20171;-75
2022/10/13 06:14:55;;;;;;;23.60;17.87;;;;;;;15.52;67.70;97910.84;5050889;28;20241;-75
2022/10/13 06:17:20;;;;;;;28.97;16.23;;;;;;;15.45;68.21;97907.22;5049816;28;20194;-74
2022/10/13 06:19:46;;;;;;;26.93;16.83;;;;;;;15.45;68.17;97909.84;5050132;28;20187;-73
2022/10/13 06:22:11;;;;;;;29.43;17.60;;;;;;;15.53;67.87;97914.31;5038994;28;20290;-74
2022/10/13 06:24:36;;;;;;;29.10;16.93;;;;;;;15.59;67.98;97918.09;5045723;28;20203;-74
2022/10/13 06:27:02;;;;;;;21.50;15.97;;;;;;;15.58;68.20;97913.81;5046622;28;20654;-75
2022/10/13 06:29:27;;;;;;;26.40;16.23;;;;;;;15.62;68.06;97915.13;5050681;28;20734;-75
2022/10/13 06:31:53;;;;;;;27.90;17.37;;;;;;;15.68;68.39;97921.56;5050496;28;20664;-74
2022/10/13 06:34:18;;;;;;;28.50;18.03;;;;;;;15.70;68.06;97928.31;5042122;28;20313;-75
2022/10/13 06:36:44;;;;;;;42.83;17.80;;;;;;;15.73;67.93;97922.72;5041658;28;20194;-74
2022/10/13 06:39:09;;;;;;;24.33;16.30;;;;;;;15.76;67.90;97919.72;5048017;28;20241;-73
2022/10/13 06:41:35;;;;;;;26.97;17.17;;;;;;;15.80;68.14;97917.59;5041742;28;20203;-74
2022/10/13 06:44:00;;;;;;;31.50;17.40;;;;;;;15.81;68.02;97917.41;5046788;28;20207;-74
2022/10/13 06:46:26;;;;;;;29.67;17.53;;;;;;;15.90;68.32;97917.41;5045927;28;20184;-76
2022/10/13 06:48:51;;;;;;;27.90;17.00;;;;;;;15.94;68.14;97908.97;5036747;28;20719;-74
2022/10/13 06:51:17;;;;;;;28.97;15.90;;;;;;;16.01;67.89;97909.09;5049246;28;20175;-76
2022/10/13 06:53:42;;;;;;;27.90;15.20;;;;;;;16.06;67.71;97906.78;5046056;28;20278;-74
2022/10/13 06:56:08;;;;;;;35.77;16.37;;;;;;;16.08;67.55;97899.53;5050843;28;20206;-75
2022/10/13 06:58:34;;;;;;;33.80;15.70;;;;;;;16.01;66.75;97903.81;5047902;28;20270;-73
2022/10/13 07:01:00;;;;;;;24.23;14.80;;;;;;;15.90;67.04;97896.25;5044576;28;20290;-74
2022/10/13 07:03:25;;;;;;;26.47;15.10;;;;;;;15.90;66.47;97901.53;5050470;28;20529;-74
2022/10/13 07:05:51;;;;;;;24.47;15.67;;;;;;;15.81;66.86;97898.91;5049777;28;20191;-74
2022/10/13 07:08:16;;;;;;;27.70;15.13;;;;;;;15.85;67.13;97903.88;5048395;28;20186;-74
2022/10/13 07:10:42;;;;;;;23.67;14.43;;;;;;;15.86;66.92;97905.53;5050519;28;20213;-73
2022/10/13 07:13:07;;;;;;;20.93;14.23;;;;;;;15.91;67.08;97908.47;5049669;28;20221;-74
2022/10/13 07:15:36;;;;;;;29.77;14.07;;;;;;;15.94;67.16;97914.25;5036402;28;20650;-73
2022/10/13 07:18:01;;;;;;;24.80;14.17;;;;;;;16.01;67.01;97919.69;5049453;28;20270;-74
2022/10/13 07:20:27;;;;;;;26.47;15.33;;;;;;;15.99;66.65;97911.13;5046861;28;20426;-74
2022/10/13 07:22:52;;;;;;;23.33;14.73;;;;;;;16.01;66.69;97914.41;5037539;28;20252;-73
2022/10/13 07:25:18;;;;;;;22.60;14.30;;;;;;;16.05;66.76;97910.44;5050984;28;20203;-74
2022/10/13 07:27:43;;;;;;;23.17;12.67;;;;;;;16.09;66.65;97913.56;5035059;28;20327;-74
2022/10/13 07:30:09;;;;;;;28.87;14.43;;;;;;;16.10;66.43;97917.84;5053743;28;20190;-74
2022/10/13 07:32:35;;;;;;;31.37;15.00;;;;;;;16.14;66.37;97913.88;5052267;28;20189;-75
2022/10/13 07:35:00;;;;;;;27.13;14.13;;;;;;;16.16;66.40;97911.91;5053370;28;20511;-73
2022/10/13 07:37:26;;;;;;;27.67;13.80;;;;;;;16.22;66.47;97910.38;5051244;28;20550;-75
2022/10/13 07:39:52;;;;;;;23.80;13.90;;;;;;;16.29;66.52;97911.34;5053426;28;20690;-75
2022/10/13 07:42:17;;;;;;;25.70;14.37;;;;;;;16.34;66.04;97909.00;5059121;28;20215;-75
2022/10/13 07:44:43;;;;;;;26.13;13.40;;;;;;;16.36;66.04;97916.75;5052237;28;20705;-75
2022/10/13 07:47:09;;;;;;;25.37;14.37;;;;;;;16.42;65.96;97916.09;5052804;28;20684;-74
2022/10/13 07:49:34;;;;;;;24.50;13.00;;;;;;;16.35;65.79;97908.00;5053315;28;20265;-73
2022/10/13 07:52:00;;;;;;;27.87;13.90;;;;;;;16.43;65.83;97907.97;5048581;28;20203;-75
2022/10/13 07:54:26;;;;;;;20.13;12.50;;;;;;;16.52;65.46;97910.56;5052581;28;20213;-75
2022/10/13 07:56:52;;;;;;;27.53;13.07;;;;;;;16.55;65.66;97905.78;5052813;28;20197;-72
2022/10/13 07:59:17;;;;;;;17.80;12.20;;;;;;;16.66;65.38;97899.25;5053083;28;20434;-75
2022/10/13 08:01:43;;;;;;;18.90;12.67;;;;;;;16.75;65.20;97897.38;5051841;28;20614;-76
2022/10/13 08:04:08;;;;;;;24.77;12.70;;;;;;;16.89;65.05;97893.16;5051715;28;20635;-74
2022/10/13 08:06:34;;;;;;;20.03;12.10;;;;;;;16.98;64.57;97900.09;5044402;28;20295;-74
2022/10/13 08:08:59;;;;;;;26.10;13.50;;;;;;;17.01;63.85;97893.59;5048743;28;20572;-74
2022/10/13 08:11:25;;;;;;;19.07;12.00;;;;;;;17.13;63.86;97899.31;5053007;28;20190;-76
2022/10/13 08:13:51;;;;;;;23.90;12.73;;;;;;;17.14;63.34;97890.34;5046626;28;20342;-74
2022/10/13 08:16:17;;;;;;;18.57;11.47;;;;;;;17.24;63.13;97882.16;5050924;28;20804;-73
2022/10/13 08:18:43;;;;;;;17.13;11.00;;;;;;;17.19;62.71;97882.72;5052428;28;20282;-74
2022/10/13 08:21:12;;;;;;;17.83;11.30;;;;;;;16.84;62.93;97882.28;5043807;28;20545;-74
2022/10/13 08:23:37;;;;;;;18.10;11.57;;;;;;;17.09;62.52;97880.28;5049206;28;20530;-74
2022/10/13 08:26:03;;;;;;;20.63;10.80;;;;;;;17.21;62.93;97878.06;5052231;28;20433;-74
2022/10/13 08:28:28;;;;;;;20.70;12.00;;;;;;;17.45;62.27;97876.19;5050140;28;20190;-74
2022/10/13 08:30:57;;;;;;;19.40;10.87;;;;;;;17.60;61.27;97871.75;5052838;28;20214;-75
2022/10/13 08:33:24;;;;;;;14.63;9.70;;;;;;;17.66;61.00;97878.16;5052449;28;20207;-75
2022/10/13 08:35:50;;;;;;;16.80;9.90;;;;;;;17.90;60.97;97871.75;5045962;28;20530;-74
2022/10/13 08:38:15;;;;;;;18.00;9.30;;;;;;;17.98;60.65;97867.41;5049734;28;20508;-74
2022/10/13 08:40:48;;;;;;;17.10;10.33;;;;;;;18.08;60.00;97873.25;5048781;28;20179;-75
2022/10/13 08:43:17;;;;;;;14.40;9.90;;;;;;;18.25;59.68;97869.41;5049715;28;20218;-74
2022/10/13 08:45:42;;;;;;;18.77;9.60;;;;;;;18.43;59.25;97870.81;5048835;28;20429;-75
2022/10/13 08:48:13;;;;;;;20.10;10.40;;;;;;;18.30;58.54;97866.19;5046918;28;20429;-74
2022/10/13 08:50:40;;;;;;;13.83;9.80;;;;;;;18.35;58.41;97855.00;5051368;28;20186;-73
2022/10/13 08:53:11;;;;;;;14.67;9.70;;;;;;;18.32;57.74;97863.34;5040128;28;20780;-76
2022/10/13 08:55:51;;;;;;;18.47;9.57;;;;;;;18.25;58.51;97865.91;5050448;28;20442;-73
2022/10/13 08:58:26;;;;;;;19.93;8.97;;;;;;;18.22;58.24;97859.16;5051237;28;20456;-74
2022/10/13 09:01:10;;;;;;;15.43;9.10;;;;;;;18.26;58.47;97863.09;5050003;28;20429;-73
2022/10/13 09:03:44;;;;;;;17.57;9.30;;;;;;;18.11;57.93;97872.88;5035791;28;20540;-75
2022/10/13 09:06:26;;;;;;;16.40;9.00;;;;;;;18.07;58.58;97867.13;5050604;28;20420;-74
2022/10/13 09:09:02;;;;;;;16.70;9.23;;;;;;;18.21;58.36;97864.66;5046220;28;20414;-74
2022/10/13 09:11:34;;;;;;;19.53;9.63;;;;;;;18.24;57.97;97864.25;5051718;28;20438;-73
2022/10/13 09:14:05;;;;;;;14.20;8.90;;;;;;;18.26;58.24;97862.25;5051965;28;20449;-75
2022/10/13 09:16:37;;;;;;;20.27;9.67;;;;;;;18.34;58.12;97866.63;5041602;28;20425;-76
2022/10/13 09:19:22;;;;;;;18.30;9.47;;;;;;;18.32;58.17;97873.94;5051772;28;20429;-74
2022/10/13 09:21:53;;;;;;;19.20;9.00;;;;;;;18.42;57.85;97871.81;5042298;28;20496;-75
2022/10/13 09:24:21;;;;;;;21.20;9.10;;;;;;;18.38;57.67;97868.72;5048604;28;20465;-74
2022/10/13 09:26:48;;;;;;;15.87;8.43;;;;;;;18.41;57.66;97864.84;5051002;28;20434;-74
2022/10/13 09:29:21;;;;;;;15.47;8.37;;;;;;;18.43;58.26;97865.50;5051686;28;20789;-74
2022/10/13 09:31:46;;;;;;;14.80;8.27;;;;;;;18.44;58.27;97856.53;5050391;28;20425;-74
2022/10/13 09:34:18;;;;;;;14.47;8.47;;;;;;;18.54;58.21;97867.66;5055502;28;20503;-76
2022/10/13 09:37:04;;;;;;;17.70;8.40;;;;;;;18.52;57.94;97859.09;5050533;28;20618;-75
2022/10/13 09:39:31;;;;;;;13.50;8.10;;;;;;;18.61;58.23;97867.75;5035123;28;20998;-75
2022/10/13 09:42:15;;;;;;;13.07;7.73;;;;;;;18.43;58.02;97860.19;5043506;28;20979;-75
2022/10/13 09:44:41;;;;;;;15.03;7.27;;;;;;;18.48;58.25;97863.13;5050505;28;20588;-74
2022/10/13 09:47:17;;;;;;;17.43;7.80;;;;;;;18.53;57.88;97873.16;5050528;28;20528;-74
2022/10/13 09:49:43;;;;;;;15.60;7.50;;;;;;;18.53;58.20;97866.00;5033311;28;20179;-74
2022/10/13 09:52:11;;;;;;;14.50;8.60;;;;;;;18.51;58.32;97862.75;5047598;28;20419;-73
2022/10/13 09:54:44;;;;;;;17.67;8.33;;;;;;;18.60;57.95;97854.66;5049593;28;20803;-74
2022/10/13 09:57:41;;;;;;;15.63;7.47;;;;;;;18.64;57.98;97870.03;5049991;28;20504;-73
2022/10/13 10:00:14;;;;;;;12.37;7.33;;;;;;;18.76;57.86;97861.56;5042676;28;20414;-74
2022/10/13 10:02:45;;;;;;;12.73;7.90;;;;;;;18.77;57.75;97850.78;5049823;28;20488;-74
2022/10/13 10:05:28;;;;;;;13.53;8.27;;;;;;;18.85;57.57;97852.44;5050728;28;20452;-73
2022/10/13 10:07:59;;;;;;;14.17;7.07;;;;;;;18.61;57.79;97851.81;5050311;28;20928;-74
2022/10/13 10:10:32;;;;;;;14.50;8.00;;;;;;;18.70;57.46;97855.19;5049745;28;20428;-74
2022/10/13 10:12:59;;;;;;;13.60;7.10;;;;;;;18.75;57.30;97862.56;5048423;28;20425;-74
2022/10/13 10:15:42;;;;;;;19.93;7.87;;;;;;;18.81;56.65;97857.31;5041282;28;20551;-74
2022/10/13 10:18:13;;;;;;;11.50;7.20;;;;;;;18.82;57.05;97863.47;5048620;28;20436;-75
2022/10/13 10:21:00;;;;;;;19.17;10.80;;;;;;;18.85;56.99;97863.06;5048560;28;20441;-73
2022/10/13 10:23:41;;;;;;;17.23;8.60;;;;;;;18.81;56.78;97857.31;5047077;28;20449;-74
2022/10/13 10:26:22;;;;;;;12.70;8.20;;;;;;;18.80;56.95;97861.00;5050506;28;20437;-72
2022/10/13 10:29:06;;;;;;;12.13;8.50;;;;;;;18.68;57.57;97851.88;5049859;28;20512;-74
2022/10/13 10:31:55;;;;;;;9.10;7.20;;;;;;;18.71;57.72;97848.84;5049935;28;20420;-75
2022/10/13 10:34:27;;;;;;;14.33;7.40;;;;;;;18.69;57.56;97843.75;5050344;28;20468;-76
2022/10/13 10:37:13;;;;;;;15.07;8.10;;;;;;;18.58;57.70;97846.91;5048577;28;20429;-75
2022/10/13 10:39:47;;;;;;;14.57;7.87;;;;;;;18.52;57.49;97848.47;5035156;28;20453;-75
2022/10/13 10:42:31;;;;;;;17.30;8.50;;;;;;;18.53;57.55;97838.66;5044554;28;20491;-75
2022/10/13 10:44:59;;;;;;;12.40;8.07;;;;;;;18.57;57.71;97839.94;5043711;28;20485;-75
2022/10/13 10:47:36;;;;;;;12.27;8.03;;;;;;;18.40;57.88;97834.84;5040528;28;20445;-74
2022/10/13 10:50:06;;;;;;;10.00;7.00;;;;;;;18.50;57.94;97833.72;5049534;28;20432;-75
2022/10/13 10:52:45;;;;;;;13.93;8.20;;;;;;;18.56;58.01;97825.03;5046641;28;20426;-74
2022/10/13 10:55:24;;;;;;;14.60;8.23;;;;;;;18.47;57.81;97824.31;5047257;28;20450;-73
2022/10/13 10:57:58;;;;;;;8.90;7.60;;;;;;;18.58;57.92;97831.78;5040537;28;20428;-75
2022/10/13 11:00:24;;;;;;;17.30;7.57;;;;;;;18.71;57.65;97819.66;5050317;28;20879;-75
2022/10/13 11:03:00;;;;;;;11.60;7.70;;;;;;;18.75;57.29;97814.78;5044686;28;20468;-74
2022/10/13 11:05:50;;;;;;;13.07;7.40;;;;;;;18.90;56.97;97806.75;5054572;28;20179;-73
2022/10/13 11:08:37;;;;;;;16.48;8.25;;;;;;;18.90;57.53;97807.56;5051534;28;20411;-74
2022/10/13 11:11:21;;;;;;;12.43;6.97;;;;;;;18.99;56.72;97810.94;5053710;28;20179;-75
2022/10/13 11:14:06;;;;;;;10.10;7.90;;;;;;;19.09;56.13;97795.50;5054522;28;20437;-76
2022/10/13 11:16:33;;;;;;;13.70;7.80;;;;;;;19.11;56.24;97795.31;5053316;28;20466;-75
2022/10/13 11:19:06;;;;;;;12.07;7.40;;;;;;;19.22;56.25;97788.66;5054147;28;20448;-75
2022/10/13 11:21:54;;;;;;;10.80;7.50;;;;;;;19.32;56.29;97778.50;5029288;28;20451;-74
2022/10/13 11:24:41;;;;;;;8.93;6.80;;;;;;;19.39;56.03;97783.84;5051978;28;20437;-73
2022/10/13 11:27:06;;;;;;;9.07;6.33;;;;;;;19.35;55.77;97788.72;5054527;28;20824;-75
2022/10/13 11:29:47;;;;;;;11.90;6.50;;;;;;;19.37;55.70;97780.56;5053915;28;20426;-75